Map

Track Data

SID SEASON NUMBER BASIN SUBBASIN NAME ISO_TIME NATURE LAT LON WMO_WIND WMO_PRES WMO_AGENCY TRACK_TYPE DIST2LAND LANDFALL IFLAG USA_AGENCY USA_ATCF_ID USA_LAT USA_LON USA_RECORD USA_STATUS USA_WIND USA_PRES USA_SSHS USA_R34_NE USA_R34_SE USA_R34_SW USA_R34_NW USA_R50_NE USA_R50_SE USA_R50_SW USA_R50_NW USA_R64_NE USA_R64_SE USA_R64_SW USA_R64_NW USA_POCI USA_ROCI USA_RMW USA_EYE TOKYO_LAT TOKYO_LON TOKYO_GRADE TOKYO_WIND TOKYO_PRES TOKYO_R50_DIR TOKYO_R50_LONG TOKYO_R50_SHORT TOKYO_R30_DIR TOKYO_R30_LONG TOKYO_R30_SHORT TOKYO_LAND CMA_LAT CMA_LON CMA_CAT CMA_WIND CMA_PRES HKO_LAT HKO_LON HKO_CAT HKO_WIND HKO_PRES NEWDELHI_LAT NEWDELHI_LON NEWDELHI_GRADE NEWDELHI_WIND NEWDELHI_PRES NEWDELHI_CI NEWDELHI_DP NEWDELHI_POCI REUNION_LAT REUNION_LON REUNION_TYPE REUNION_WIND REUNION_PRES REUNION_TNUM REUNION_CI REUNION_RMW REUNION_R34_NE REUNION_R34_SE REUNION_R34_SW REUNION_R34_NW REUNION_R50_NE REUNION_R50_SE REUNION_R50_SW REUNION_R50_NW REUNION_R64_NE REUNION_R64_SE REUNION_R64_SW REUNION_R64_NW BOM_LAT BOM_LON BOM_TYPE BOM_WIND BOM_PRES BOM_TNUM BOM_CI BOM_RMW BOM_R34_NE BOM_R34_SE BOM_R34_SW BOM_R34_NW BOM_R50_NE BOM_R50_SE BOM_R50_SW BOM_R50_NW BOM_R64_NE BOM_R64_SE BOM_R64_SW BOM_R64_NW BOM_ROCI BOM_POCI BOM_EYE BOM_POS_METHOD BOM_PRES_METHOD NADI_LAT NADI_LON NADI_CAT NADI_WIND NADI_PRES WELLINGTON_LAT WELLINGTON_LON WELLINGTON_WIND WELLINGTON_PRES DS824_LAT DS824_LON DS824_STAGE DS824_WIND DS824_PRES TD9636_LAT TD9636_LON TD9636_STAGE TD9636_WIND TD9636_PRES TD9635_LAT TD9635_LON TD9635_WIND TD9635_PRES TD9635_ROCI NEUMANN_LAT NEUMANN_LON NEUMANN_CLASS NEUMANN_WIND NEUMANN_PRES MLC_LAT MLC_LON MLC_CLASS MLC_WIND MLC_PRES USA_GUST BOM_GUST BOM_GUST_PER REUNION_GUST REUNION_GUST_PER USA_SEAHGT USA_SEARAD_NE USA_SEARAD_SE USA_SEARAD_SW USA_SEARAD_NW STORM_SPEED STORM_DIR
1990060S15170 1990 16 SP MM HILDA 1990-03-01 06:00:00 TS -14.5000 170.000 main 310 263 O___________O_ jtwc_sh SH211990 -14.5000 170.000 15 -1 -14.5000 170.000 TC 15 23 313
1990060S15170 1990 16 SP MM HILDA 1990-03-01 09:00:00 TS -13.7230 169.149 main 260 256 P___________P_ SH211990 -13.7230 169.149 15 -1 -13.7230 169.149 TC 15 23 314
1990060S15170 1990 16 SP MM HILDA 1990-03-01 12:00:00 TS -12.9000 168.300 main 268 268 O___________O_ jtwc_sh SH211990 -12.9000 168.300 15 -1 -12.9000 168.300 TC 15 24 316
1990060S15170 1990 16 SP MM HILDA 1990-03-01 15:00:00 TS -12.0323 167.450 main 314 314 P___________P_ SH211990 -12.0323 167.450 15 -1 -12.0323 167.450 TC 15 23 314
1990060S15170 1990 16 SP MM HILDA 1990-03-01 18:00:00 TS -11.3000 166.600 main 380 380 O___________O_ jtwc_sh SH211990 -11.3000 166.600 15 -1 -11.3000 166.600 TC 15 20 306
1990060S15170 1990 16 SP MM HILDA 1990-03-01 21:00:00 TS -10.8296 165.773 main 382 295 P___________P_ SH211990 -10.8296 165.773 15 -1 -10.8296 165.773 TC 15 18 293
1990060S15170 1990 16 SP MM HILDA 1990-03-02 00:00:00 TS -10.6000 164.900 main 284 187 O___________O_ jtwc_sh SH211990 -10.6000 164.900 15 -1 -10.6000 164.900 TC 15 18 281
1990060S15170 1990 16 SP MM HILDA 1990-03-02 03:00:00 TS -10.4723 163.937 main 176 77 P___________P_ SH211990 -10.4723 163.937 15 -1 -10.4723 163.937 TC 15 20 270
1990060S15170 1990 16 SP MM HILDA 1990-03-02 06:00:00 TS -10.6000 162.900 main 66 0 O___________O_ jtwc_sh SH211990 -10.6000 162.900 15 -1 -10.6000 162.900 TC 15 22 256
1990060S15170 1990 16 SP MM HILDA 1990-03-02 09:00:00 TS -10.9800 161.793 main 22 22 P___________P_ SH211990 -10.9800 161.793 15 -1 -10.9800 161.793 TC 15 24 245
1990060S15170 1990 16 SP MM HILDA 1990-03-02 12:00:00 TS -11.6000 160.700 main 142 142 O___________O_ jtwc_sh SH211990 -11.6000 160.700 15 -1 -11.6000 160.700 TC 15 25 236
1990060S15170 1990 16 SP EA HILDA 1990-03-02 15:00:00 TS -12.3622 159.698 main 281 281 P___________P_ SH211990 -12.3622 159.698 15 -1 -12.3622 159.698 TC 15 25 229
1990060S15170 1990 16 SP EA HILDA 1990-03-02 18:00:00 TS -13.2000 158.800 main 396 396 O___________O_ jtwc_sh SH211990 -13.2000 158.800 15 -1 -13.2000 158.800 TC 15 23 226
1990060S15170 1990 16 SP EA HILDA 1990-03-02 21:00:00 TS -13.9797 157.990 main 509 509 P___________P_ SH211990 -13.9797 157.990 15 -1 -13.9797 157.990 TC 15 21 224
1990060S15170 1990 16 SP EA HILDA 1990-03-03 00:00:00 TS -14.7000 157.300 main 612 612 O___________O_ jtwc_sh SH211990 -14.7000 157.300 15 -1 -14.7000 157.300 TC 15 19 222
1990060S15170 1990 16 SP EA HILDA 1990-03-03 03:00:00 TS -15.3447 156.705 main 701 701 P___________P_ SH211990 -15.3447 156.705 15 -1 -15.3447 156.705 TC 15 16 221
1990060S15170 1990 16 SP EA HILDA 1990-03-03 06:00:00 TS -15.9000 156.200 main 786 786 O___________O_ jtwc_sh SH211990 -15.9000 156.200 15 -1 -15.9000 156.200 TC 15 14 222
1990060S15170 1990 16 SP EA HILDA 1990-03-03 09:00:00 TS -16.4024 155.712 main 844 789 P___________P_ SH211990 -16.4024 155.712 15 -1 -16.4024 155.712 TC 15 13 224
1990060S15170 1990 16 SP EA HILDA 1990-03-03 12:00:00 TS -16.8000 155.300 main 789 750 O___________O_ jtwc_sh SH211990 -16.8000 155.300 15 -1 -16.8000 155.300 TC 15 10 226
1990060S15170 1990 16 SP EA HILDA 1990-03-03 15:00:00 TS -17.0573 154.992 main 744 705 P___________P_ SH211990 -17.0573 154.992 17 -1 -17.0573 154.992 TC 17 8 229
1990060S15170 1990 16 SP EA HILDA 1990-03-03 18:00:00 TS -17.3000 154.700 main 705 652 O___________O_ jtwc_sh SH211990 -17.3000 154.700 20 -1 -17.3000 154.700 TC 20 9 227
1990060S15170 1990 16 SP EA HILDA 1990-03-03 21:00:00 TS -17.6701 154.293 main 646 570 P___________P_ SH211990 -17.6701 154.293 22 -1 -17.6701 154.293 TC 22 13 224
1990060S15170 1990 16 SP EA HILDA 1990-03-04 00:00:00 TS -18.2300 153.760 25 1002 bom main 570 506 O_____O_O___O_ jtwc_sh SH211990 -18.1000 153.900 25 -1 -18.8000 153.200 20 25 1002 1.50000 215 1010 2 5 -18.7000 153.200 30 997 -18.1000 153.900 TC 25 45 45 13 216
1990060S15170 1990 16 SP EA HILDA 1990-03-04 03:00:00 TS -18.7245 153.479 main 506 457 P_____P_P___P_ SH211990 -18.5574 153.620 27 -1 -19.0300 153.183 20 27 999 201 1010 -19.0875 153.212 32 996 -18.5574 153.620 TC 27 10 205
1990060S15170 1990 16 SP EA HILDA 1990-03-04 06:00:00 TS -19.1500 153.314 30 997 bom main 457 415 O_____O_O___O_ jtwc_sh SH211990 -19.0000 153.400 30 -1 -19.3000 153.200 20 30 997 2.50000 188 1010 2 5 -19.4000 153.200 35 995 -19.0000 153.400 TC 30 45 45 8 199
1990060S15170 1990 16 SP EA HILDA 1990-03-04 09:00:00 TS -19.4999 153.190 main 415 391 P_____P_P___P_ SH211990 -19.3950 153.185 32 -1 -19.6224 153.252 20 30 996 188 1010 -19.5874 153.137 37 992 -19.3950 153.185 TC 32 7 203
1990060S15170 1990 16 SP EA HILDA 1990-03-04 12:00:00 TS -19.7500 153.050 30 996 bom main 391 354 O_____O_O___O_ jtwc_sh SH211990 -19.7000 153.000 35 0 -19.9000 153.200 20 30 996 2.50000 188 1010 2 5 -19.7000 153.000 40 990 -19.7000 153.000 TC 35 45 45 5 218
1990060S15170 1990 16 SP EA HILDA 1990-03-04 15:00:00 TS -19.9257 152.831 main 354 332 P_____P_P___P_ SH211990 -19.9025 152.835 35 0 -20.0528 152.873 20 30 996 188 1010 -19.8450 152.780 40 990 -19.9025 152.835 TC 35 5 239
1990060S15170 1990 16 SP EA HILDA 1990-03-04 18:00:00 TS -20.0000 152.600 30 996 bom main 332 321 O_____O_O___O_ jtwc_sh SH211990 -20.0000 152.700 35 0 -20.1000 152.500 20 30 996 2.50000 188 1010 1 5 -19.9000 152.500 40 990 -20.0000 152.700 TC 35 45 45 4 259
1990060S15170 1990 16 SP EA HILDA 1990-03-04 21:00:00 TS -20.0006 152.406 main 321 315 P_____P_P___P_ SH211990 -20.0450 152.577 35 0 -20.1174 152.305 20 30 996 174 1010 -19.7951 152.162 40 990 -20.0450 152.577 TC 35 3 288
1990060S15170 1990 16 SP EA HILDA 1990-03-05 00:00:00 TS -19.9000 152.275 30 996 bom main 325 325 O_____O_O___O_ jtwc_sh SH211990 -20.0000 152.500 35 0 -20.0000 152.200 20 30 996 2.50000 161 1010 3 6 -19.6000 151.900 40 990 -20.0000 152.500 TC 35 45 45 3 331
1990060S15170 1990 16 SP EA HILDA 1990-03-05 03:00:00 TS -19.7118 152.231 main 339 339 P_____P_P___P_ SH211990 -19.8875 152.477 35 0 -19.6725 152.127 20 32 995 161 1010 -19.3999 151.840 40 990 -19.8875 152.477 TC 35 4 0
1990060S15170 1990 16 SP EA HILDA 1990-03-05 06:00:00 TS -19.4750 152.250 35 994 bom main 364 364 O_____O_O___O_ jtwc_sh SH211990 -19.7000 152.500 35 0 -19.3000 152.100 30 35 994 3.00000 161 1010 3 6 -19.2000 151.900 40 990 -19.7000 152.500 TC 35 49 49 5 5
1990060S15170 1990 16 SP EA HILDA 1990-03-05 09:00:00 TS -19.2662 152.270 main 379 379 P_____P_P___P_ SH211990 -19.4800 152.535 35 0 -19.0624 152.040 30 37 994 201 1010 -19.0425 151.970 40 990 -19.4800 152.535 TC 35 4 12
1990060S15170 1990 16 SP EA HILDA 1990-03-05 12:00:00 TS -19.0500 152.350 40 994 bom main 402 402 O_____O_O___O_ jtwc_sh SH211990 -19.2000 152.600 35 0 -18.9000 152.100 30 40 994 3.00000 242 1010 3 6 -18.9000 152.100 40 990 -19.2000 152.600 TC 35 55 55 5 23
1990060S15170 1990 16 SP EA HILDA 1990-03-05 15:00:00 TS -18.8011 152.481 main 422 422 P_____P_P___P_ SH211990 -18.8499 152.647 35 0 -18.7625 152.375 30 45 987 242 1010 -18.7424 152.255 45 987 -18.8499 152.647 TC 35 6 37
1990060S15170 1990 16 SP EA HILDA 1990-03-05 18:00:00 TS -18.5750 152.725 50 980 bom main 450 450 O_____O_O___O_ jtwc_sh SH211990 -18.5000 152.800 35 0 -18.7000 152.800 30 50 980 3.50000 242 1010 3 6 -18.6000 152.500 50 985 -18.5000 152.800 TC 35 69 69 7 56
1990060S15170 1990 16 SP EA HILDA 1990-03-05 21:00:00 TS -18.3982 153.118 main 498 498 P_____P_P___P_ SH211990 -18.1825 153.133 37 0 -18.7503 153.330 30 55 975 242 1010 -18.4776 152.878 50 985 -18.1825 153.133 TC 37 9 71
1990060S15170 1990 16 SP EA HILDA 1990-03-06 00:00:00 TS -18.3000 153.575 60 970 bom main 549 549 O_____O_O___O_ jtwc_sh SH211990 -18.0000 153.600 40 0 -18.8000 153.800 30 60 970 4.00000 242 1010 3 6 -18.4000 153.300 50 985 -18.0000 153.600 TC 40 84 84 8 82
1990060S15170 1990 16 SP EA HILDA 1990-03-06 03:00:00 TS -18.2929 153.947 main 566 566 P_____P_P___P_ SH211990 -18.0324 154.112 45 0 -18.7294 153.927 30 60 970 282 1010 -18.3773 153.635 50 982 -18.0324 154.112 TC 45 8 94
1990060S15170 1990 16 SP EA HILDA 1990-03-06 06:00:00 TS -18.3500 154.375 60 970 bom main 590 590 O_____O_O___O_ jtwc_sh SH211990 -18.2000 154.700 50 0 -18.6000 154.100 30 60 970 4.00000 323 1010 3 6 -18.4000 154.000 50 980 -18.2000 154.700 TC 50 84 84 9 95
1990060S15170 1990 16 SP EA HILDA 1990-03-06 09:00:00 TS -18.3798 154.928 main 625 625 P_____P_P___P_ SH211990 -18.3549 155.328 52 0 -18.3976 154.653 30 55 975 363 1010 -18.4117 154.403 50 982 -18.3549 155.328 TC 52 12 97
1990060S15170 1990 16 SP EA HILDA 1990-03-06 12:00:00 TS -18.5000 155.600 50 980 bom main 670 670 O_____O_O___O_ jtwc_sh SH211990 -18.6000 156.000 55 0 -18.3000 155.400 30 50 980 3.50000 404 1010 3 6 -18.5000 155.000 50 985 -18.6000 156.000 TC 55 69 69 14 106
1990060S15170 1990 16 SP EA HILDA 1990-03-06 15:00:00 TS -18.7782 156.372 main 714 714 P_____P_P___P_ SH211990 -18.9621 156.670 57 0 -18.4750 156.185 30 45 980 404 1010 -18.7135 155.962 50 985 -18.9621 156.670 TC 57 17 113
1990060S15170 1990 16 SP EA HILDA 1990-03-06 18:00:00 TS -19.1500 157.200 40 980 bom main 724 643 O_____O_O___O_ jtwc_sh SH211990 -19.4000 157.400 60 0 -18.8000 157.000 30 40 980 3.00000 404 1010 1 6 -19.0000 157.000 50 985 -19.4000 157.400 TC 60 55 55 17 116
1990060S15170 1990 16 SP EA HILDA 1990-03-06 21:00:00 TS -19.4895 157.951 main 633 544 P_____P_P___P_ SH211990 -19.8266 158.176 60 0 -19.0741 157.722 30 37 982 390 1010 -19.2308 157.729 52 982 -19.8266 158.176 TC 60 17 118
1990060S15170 1990 16 SP EA HILDA 1990-03-07 00:00:00 TS -19.9533 158.820 35 985 bom main 543 427 O_____O_O___O_ jtwc_sh SH211990 -20.3000 159.100 60 0 -19.5000 158.500 30 35 985 3.00000 377 1010 1 9 -19.6000 158.500 55 980 -20.3000 159.100 TC 60 49 49 22 119
1990060S15170 1990 16 SP EA HILDA 1990-03-07 03:00:00 TS -20.5286 159.959 main 417 317 P_____P_P___P_ SH211990 -20.7832 160.271 57 0 -20.1767 159.444 30 35 985 323 1010 -20.1954 159.591 52 982 -20.7832 160.271 TC 57 26 120
1990060S15170 1990 16 SP MM HILDA 1990-03-07 06:00:00 TS -21.2462 161.208 50 985 wellington main 308 255 O_____O_O___O_ jtwc_sh SH211990 -21.4000 161.500 55 0 -21.0000 160.500 30 35 985 3.00000 269 1010 1 9 -21.0000 160.800 50 985 -21.4000 161.500 TC 55 49 49 28 125
1990060S15170 1990 16 SP MM HILDA 1990-03-07 09:00:00 TS -22.0858 162.384 main 252 235 P_______P___P_ SH211990 -22.1491 162.576 55 0 30 -21.9591 162.001 50 985 -22.1491 162.576 TC 55 28 132
1990060S15170 1990 16 SP MM HILDA 1990-03-07 12:00:00 TS -23.1333 163.433 50 985 wellington main 244 244 O_______O___O_ jtwc_sh SH211990 -23.2000 163.600 55 0 -23.0000 163.100 50 985 -23.2000 163.600 TC 55 30 139
1990060S15170 1990 16 SP MM HILDA 1990-03-07 15:00:00 TS -24.3561 164.497 50 985 wellington main 304 298 P_______O___P_ SH211990 -24.5341 164.746 52 0 -24.0000 164.000 50 985 -24.5341 164.746 TC 52 36 149
1990060S15170 1990 16 SP MM HILDA 1990-03-07 18:00:00 TS -26.1800 165.420 50 985 wellington main 444 444 O_______O___O_ jtwc_sh SH211990 -26.3000 165.700 50 0 -26.0000 165.000 50 985 -26.3000 165.700 TC 50 43 165
1990060S15170 1990 16 SP MM HILDA 1990-03-07 21:00:00 TS -28.5271 165.722 main 688 688 P_______P___P_ SH211990 -28.5211 166.231 47 0 -28.5330 165.213 47 986 -28.5211 166.231 TC 47 48 179
1990060S15170 1990 16 SP MM HILDA 1990-03-08 00:00:00 TS -31.0000 165.500 45 987 wellington main 768 732 O_______O___O_ jtwc_sh SH211990 -31.0000 166.500 45 0 -31.0000 165.000 45 987 -31.0000 166.500 TC 45 42 188
1990060S15170 1990 16 SP MM HILDA 1990-03-08 03:00:00 NR -32.6866 165.000 main 730 700 ________P_____ SH211990 -1 -32.6866 165.000 42 988 TC 30 188
1990060S15170 1990 16 SP MM HILDA 1990-03-08 06:00:00 NR -34.0000 165.000 40 990 wellington main 699 694 ________O_____ -1 -34.0000 165.000 40 990 26 180
1990060S15170 1990 16 SP MM HILDA 1990-03-08 09:00:00 NR -35.3098 165.000 main 697 697 ________P_____ -1 -35.3098 165.000 40 990 25 179
1990060S15170 1990 16 SP MM HILDA 1990-03-08 12:00:00 NR -36.5000 165.000 40 990 wellington main 721 711 ________O_____ -1 -36.5000 165.000 40 990 23 0
1990060S15170 1990 16 SP MM HILDA 1990-03-08 15:00:00 NR -37.6224 164.993 main 711 655 ________P_____ -1 -37.6224 164.993 40 990 22 180
1990060S15170 1990 16 SP MM HILDA 1990-03-08 18:00:00 NR -38.7000 165.000 40 990 wellington main 648 559 ________O_____ -1 -38.7000 165.000 40 990 22 179
1990060S15170 1990 16 SP MM HILDA 1990-03-08 21:00:00 NR -39.8074 165.014 main 550 450 ________P_____ -1 -39.8074 165.014 35 993 22 178
1990060S15170 1990 16 SP MM HILDA 1990-03-09 00:00:00 NR -40.9000 165.100 30 997 wellington main 441 344 ________O_____ -1 -40.9000 165.100 30 997 22 174
1990060S15170 1990 16 SP MM HILDA 1990-03-09 03:00:00 NR -41.9602 165.310 main 336 250 ________P_____ -1 -41.9602 165.310 30 997 21 170
1990060S15170 1990 16 SP MM HILDA 1990-03-09 06:00:00 NR -43.0000 165.600 30 997 wellington main 242 ________O_____ -1 -43.0000 165.600 30 997 21 168

Digital Typhoon Data and Search

About IBTrACS Database

This database is a web-friendly format of International Best Track Archive for Climate Stewardship (IBTrACS), a global best track data archive curated by NOAA dating back to 1842.

Updated: 2021-10-21